sensor_id;sensor_type;location;lat;lon;timestamp;temperature;humidity
11540;DHT22;5826;54.756;9.192;2022-10-16T00:00:36;13.40;99.90
11540;DHT22;5826;54.756;9.192;2022-10-16T00:03:02;13.40;99.90
11540;DHT22;5826;54.756;9.192;2022-10-16T00:05:28;13.40;99.90
11540;DHT22;5826;54.756;9.192;2022-10-16T00:07:54;13.40;99.90
11540;DHT22;5826;54.756;9.192;2022-10-16T00:10:20;13.40;99.90
11540;DHT22;5826;54.756;9.192;2022-10-16T00:12:45;13.40;99.90
11540;DHT22;5826;54.756;9.192;2022-10-16T00:15:11;13.40;99.90
11540;DHT22;5826;54.756;9.192;2022-10-16T00:17:36;13.40;99.90
11540;DHT22;5826;54.756;9.192;2022-10-16T00:20:02;13.40;99.90
11540;DHT22;5826;54.756;9.192;2022-10-16T00:22:28;13.40;99.90
11540;DHT22;5826;54.756;9.192;2022-10-16T00:24:53;13.40;99.90
11540;DHT22;5826;54.756;9.192;2022-10-16T00:27:19;13.40;99.90
11540;DHT22;5826;54.756;9.192;2022-10-16T00:29:44;13.40;99.90
11540;DHT22;5826;54.756;9.192;2022-10-16T00:32:10;13.40;99.90
11540;DHT22;5826;54.756;9.192;2022-10-16T00:34:35;13.40;99.90
11540;DHT22;5826;54.756;9.192;2022-10-16T00:37:01;13.40;99.90
11540;DHT22;5826;54.756;9.192;2022-10-16T00:39:27;13.40;99.90
11540;DHT22;5826;54.756;9.192;2022-10-16T00:41:53;13.40;99.90
11540;DHT22;5826;54.756;9.192;2022-10-16T00:52:31;13.40;99.90
11540;DHT22;5826;54.756;9.192;2022-10-16T00:54:57;13.40;99.90
11540;DHT22;5826;54.756;9.192;2022-10-16T00:57:23;13.30;99.90
11540;DHT22;5826;54.756;9.192;2022-10-16T00:59:50;13.40;99.90
11540;DHT22;5826;54.756;9.192;2022-10-16T01:02:16;13.40;99.90
11540;DHT22;5826;54.756;9.192;2022-10-16T01:04:48;13.40;99.90
11540;DHT22;5826;54.756;9.192;2022-10-16T01:10:17;13.40;99.90
11540;DHT22;5826;54.756;9.192;2022-10-16T01:13:17;13.40;99.90
11540;DHT22;5826;54.756;9.192;2022-10-16T01:15:47;13.40;99.90
11540;DHT22;5826;54.756;9.192;2022-10-16T01:18:37;13.40;99.90
11540;DHT22;5826;54.756;9.192;2022-10-16T01:21:07;13.30;99.90
11540;DHT22;5826;54.756;9.192;2022-10-16T01:29:46;13.30;99.90
11540;DHT22;5826;54.756;9.192;2022-10-16T01:35:02;13.30;99.90
11540;DHT22;5826;54.756;9.192;2022-10-16T01:37:36;13.30;99.90
11540;DHT22;5826;54.756;9.192;2022-10-16T01:40:07;13.30;99.90
11540;DHT22;5826;54.756;9.192;2022-10-16T01:42:42;13.20;99.90
11540;DHT22;5826;54.756;9.192;2022-10-16T01:45:10;13.20;99.90
11540;DHT22;5826;54.756;9.192;2022-10-16T01:47:39;13.20;99.90
11540;DHT22;5826;54.756;9.192;2022-10-16T01:50:06;13.20;99.90
11540;DHT22;5826;54.756;9.192;2022-10-16T01:52:35;13.20;99.90
11540;DHT22;5826;54.756;9.192;2022-10-16T01:55:05;13.20;99.90
11540;DHT22;5826;54.756;9.192;2022-10-16T01:57:32;13.20;99.90
11540;DHT22;5826;54.756;9.192;2022-10-16T02:00:03;13.20;99.90
11540;DHT22;5826;54.756;9.192;2022-10-16T02:02:31;13.20;99.90
11540;DHT22;5826;54.756;9.192;2022-10-16T02:05:20;13.10;99.90
11540;DHT22;5826;54.756;9.192;2022-10-16T02:07:47;13.10;99.90
11540;DHT22;5826;54.756;9.192;2022-10-16T02:10:13;13.10;99.90
11540;DHT22;5826;54.756;9.192;2022-10-16T02:12:42;13.10;99.90
11540;DHT22;5826;54.756;9.192;2022-10-16T02:15:09;13.10;99.90
11540;DHT22;5826;54.756;9.192;2022-10-16T02:17:35;13.00;99.90
11540;DHT22;5826;54.756;9.192;2022-10-16T02:20:01;13.10;99.90
11540;DHT22;5826;54.756;9.192;2022-10-16T02:22:35;13.50;99.90
11540;DHT22;5826;54.756;9.192;2022-10-16T02:25:22;13.00;99.90
11540;DHT22;5826;54.756;9.192;2022-10-16T02:28:02;13.00;99.90
11540;DHT22;5826;54.756;9.192;2022-10-16T02:30:59;13.00;99.90
11540;DHT22;5826;54.756;9.192;2022-10-16T02:33:26;13.00;99.90
11540;DHT22;5826;54.756;9.192;2022-10-16T02:35:53;13.00;99.90
11540;DHT22;5826;54.756;9.192;2022-10-16T02:38:20;13.00;99.90
11540;DHT22;5826;54.756;9.192;2022-10-16T02:40:46;13.00;99.90
11540;DHT22;5826;54.756;9.192;2022-10-16T02:43:12;13.00;99.90
11540;DHT22;5826;54.756;9.192;2022-10-16T02:45:38;13.00;99.90
11540;DHT22;5826;54.756;9.192;2022-10-16T02:48:04;13.00;99.90
11540;DHT22;5826;54.756;9.192;2022-10-16T02:50:29;13.00;99.90
11540;DHT22;5826;54.756;9.192;2022-10-16T02:52:55;13.00;99.90
11540;DHT22;5826;54.756;9.192;2022-10-16T02:55:20;13.00;99.90
11540;DHT22;5826;54.756;9.192;2022-10-16T02:57:46;13.00;99.90
11540;DHT22;5826;54.756;9.192;2022-10-16T03:00:14;12.90;99.90
11540;DHT22;5826;54.756;9.192;2022-10-16T03:02:40;13.00;99.90
11540;DHT22;5826;54.756;9.192;2022-10-16T03:05:07;13.00;99.90
11540;DHT22;5826;54.756;9.192;2022-10-16T03:07:32;13.00;99.90
11540;DHT22;5826;54.756;9.192;2022-10-16T03:09:58;13.00;99.90
11540;DHT22;5826;54.756;9.192;2022-10-16T03:12:29;13.00;99.90
11540;DHT22;5826;54.756;9.192;2022-10-16T03:14:55;13.00;99.90
11540;DHT22;5826;54.756;9.192;2022-10-16T03:17:22;12.90;99.90
11540;DHT22;5826;54.756;9.192;2022-10-16T03:19:47;12.90;99.90
11540;DHT22;5826;54.756;9.192;2022-10-16T03:22:13;12.90;99.90
11540;DHT22;5826;54.756;9.192;2022-10-16T03:24:38;12.90;99.90
11540;DHT22;5826;54.756;9.192;2022-10-16T03:27:04;12.90;99.90
11540;DHT22;5826;54.756;9.192;2022-10-16T03:29:29;12.90;99.90
11540;DHT22;5826;54.756;9.192;2022-10-16T03:31:56;12.90;99.90
11540;DHT22;5826;54.756;9.192;2022-10-16T03:34:21;12.90;99.90
11540;DHT22;5826;54.756;9.192;2022-10-16T03:36:47;12.90;99.90
11540;DHT22;5826;54.756;9.192;2022-10-16T03:39:13;12.90;99.90
11540;DHT22;5826;54.756;9.192;2022-10-16T03:41:38;12.90;99.90
11540;DHT22;5826;54.756;9.192;2022-10-16T03:44:04;12.90;99.90
11540;DHT22;5826;54.756;9.192;2022-10-16T03:46:29;12.90;99.90
11540;DHT22;5826;54.756;9.192;2022-10-16T03:48:55;12.90;99.90
11540;DHT22;5826;54.756;9.192;2022-10-16T03:51:20;12.80;99.90
11540;DHT22;5826;54.756;9.192;2022-10-16T03:53:46;12.80;99.90
11540;DHT22;5826;54.756;9.192;2022-10-16T03:56:12;12.80;99.90
11540;DHT22;5826;54.756;9.192;2022-10-16T03:58:37;12.80;99.90
11540;DHT22;5826;54.756;9.192;2022-10-16T04:01:03;12.80;99.90
11540;DHT22;5826;54.756;9.192;2022-10-16T04:03:28;12.80;99.90
11540;DHT22;5826;54.756;9.192;2022-10-16T04:05:54;12.80;99.90
11540;DHT22;5826;54.756;9.192;2022-10-16T04:08:20;12.70;99.90
11540;DHT22;5826;54.756;9.192;2022-10-16T04:10:46;12.80;99.90
11540;DHT22;5826;54.756;9.192;2022-10-16T04:13:12;12.80;99.90
11540;DHT22;5826;54.756;9.192;2022-10-16T04:15:37;12.70;99.90
11540;DHT22;5826;54.756;9.192;2022-10-16T04:18:03;12.70;99.90
11540;DHT22;5826;54.756;9.192;2022-10-16T04:20:29;12.80;99.90
11540;DHT22;5826;54.756;9.192;2022-10-16T04:22:55;12.80;99.90
11540;DHT22;5826;54.756;9.192;2022-10-16T04:25:20;12.80;99.90
11540;DHT22;5826;54.756;9.192;2022-10-16T04:27:46;12.80;99.90
11540;DHT22;5826;54.756;9.192;2022-10-16T04:30:12;12.80;99.90
11540;DHT22;5826;54.756;9.192;2022-10-16T04:32:37;12.80;99.90
11540;DHT22;5826;54.756;9.192;2022-10-16T04:35:03;12.80;99.90
11540;DHT22;5826;54.756;9.192;2022-10-16T04:37:29;12.80;99.90
11540;DHT22;5826;54.756;9.192;2022-10-16T04:39:54;12.80;99.90
11540;DHT22;5826;54.756;9.192;2022-10-16T04:42:20;12.80;99.90
11540;DHT22;5826;54.756;9.192;2022-10-16T04:44:46;12.90;99.90
11540;DHT22;5826;54.756;9.192;2022-10-16T04:47:12;12.80;99.90
11540;DHT22;5826;54.756;9.192;2022-10-16T04:49:38;12.90;99.90
11540;DHT22;5826;54.756;9.192;2022-10-16T04:52:03;12.90;99.90
11540;DHT22;5826;54.756;9.192;2022-10-16T04:54:29;13.00;99.90
11540;DHT22;5826;54.756;9.192;2022-10-16T04:56:54;13.00;99.90
11540;DHT22;5826;54.756;9.192;2022-10-16T04:59:20;13.10;99.90
11540;DHT22;5826;54.756;9.192;2022-10-16T05:01:46;13.10;99.90
11540;DHT22;5826;54.756;9.192;2022-10-16T05:04:11;13.10;99.90
11540;DHT22;5826;54.756;9.192;2022-10-16T05:06:37;13.10;99.90
11540;DHT22;5826;54.756;9.192;2022-10-16T05:09:04;13.10;99.90
11540;DHT22;5826;54.756;9.192;2022-10-16T05:11:30;13.20;99.90
11540;DHT22;5826;54.756;9.192;2022-10-16T05:13:56;13.20;99.90
11540;DHT22;5826;54.756;9.192;2022-10-16T05:16:21;13.20;99.90
11540;DHT22;5826;54.756;9.192;2022-10-16T05:18:47;13.20;99.90
11540;DHT22;5826;54.756;9.192;2022-10-16T05:21:12;13.20;99.90
11540;DHT22;5826;54.756;9.192;2022-10-16T05:23:38;13.20;99.90
11540;DHT22;5826;54.756;9.192;2022-10-16T05:26:03;13.20;99.90
11540;DHT22;5826;54.756;9.192;2022-10-16T05:28:30;13.20;99.90
11540;DHT22;5826;54.756;9.192;2022-10-16T05:30:56;13.20;99.90
11540;DHT22;5826;54.756;9.192;2022-10-16T05:33:24;13.20;99.90
11540;DHT22;5826;54.756;9.192;2022-10-16T05:35:50;13.20;99.90
11540;DHT22;5826;54.756;9.192;2022-10-16T05:38:17;13.20;99.90
11540;DHT22;5826;54.756;9.192;2022-10-16T05:40:43;13.20;99.90
11540;DHT22;5826;54.756;9.192;2022-10-16T05:43:08;13.20;99.90
11540;DHT22;5826;54.756;9.192;2022-10-16T05:45:34;13.20;99.90
11540;DHT22;5826;54.756;9.192;2022-10-16T05:48:00;13.20;99.90
11540;DHT22;5826;54.756;9.192;2022-10-16T05:50:26;13.20;99.90
11540;DHT22;5826;54.756;9.192;2022-10-16T05:52:52;13.20;99.90
11540;DHT22;5826;54.756;9.192;2022-10-16T05:55:18;13.20;99.90
11540;DHT22;5826;54.756;9.192;2022-10-16T05:57:43;13.20;99.90
11540;DHT22;5826;54.756;9.192;2022-10-16T06:00:09;13.20;99.90
11540;DHT22;5826;54.756;9.192;2022-10-16T06:02:35;13.20;99.90
11540;DHT22;5826;54.756;9.192;2022-10-16T06:05:01;13.20;99.90
11540;DHT22;5826;54.756;9.192;2022-10-16T06:07:26;13.20;99.90
11540;DHT22;5826;54.756;9.192;2022-10-16T06:09:52;13.20;99.90
11540;DHT22;5826;54.756;9.192;2022-10-16T06:12:18;13.20;99.90
11540;DHT22;5826;54.756;9.192;2022-10-16T06:14:45;13.20;99.90
11540;DHT22;5826;54.756;9.192;2022-10-16T06:17:12;13.20;99.90
11540;DHT22;5826;54.756;9.192;2022-10-16T06:19:38;13.20;99.90
11540;DHT22;5826;54.756;9.192;2022-10-16T06:22:04;13.20;99.90
11540;DHT22;5826;54.756;9.192;2022-10-16T06:24:29;13.20;99.90
11540;DHT22;5826;54.756;9.192;2022-10-16T06:26:55;13.20;99.90
11540;DHT22;5826;54.756;9.192;2022-10-16T06:29:20;13.20;99.90
11540;DHT22;5826;54.756;9.192;2022-10-16T06:31:46;13.20;99.90
11540;DHT22;5826;54.756;9.192;2022-10-16T06:34:11;13.20;99.90
11540;DHT22;5826;54.756;9.192;2022-10-16T06:36:38;13.20;99.90
11540;DHT22;5826;54.756;9.192;2022-10-16T06:39:04;13.20;99.90
11540;DHT22;5826;54.756;9.192;2022-10-16T06:41:30;13.20;99.90
11540;DHT22;5826;54.756;9.192;2022-10-16T06:43:56;13.20;99.90
11540;DHT22;5826;54.756;9.192;2022-10-16T06:46:24;13.20;99.90
11540;DHT22;5826;54.756;9.192;2022-10-16T06:48:50;13.20;99.90
11540;DHT22;5826;54.756;9.192;2022-10-16T06:51:20;13.20;99.90
11540;DHT22;5826;54.756;9.192;2022-10-16T06:53:48;13.30;99.90
11540;DHT22;5826;54.756;9.192;2022-10-16T06:56:22;13.30;99.90
11540;DHT22;5826;54.756;9.192;2022-10-16T06:58:49;13.30;99.90
11540;DHT22;5826;54.756;9.192;2022-10-16T07:01:16;13.30;99.90
11540;DHT22;5826;54.756;9.192;2022-10-16T07:03:43;13.40;99.90
11540;DHT22;5826;54.756;9.192;2022-10-16T07:06:11;13.40;99.90
11540;DHT22;5826;54.756;9.192;2022-10-16T07:08:40;13.50;99.90
11540;DHT22;5826;54.756;9.192;2022-10-16T07:11:09;13.60;99.90
11540;DHT22;5826;54.756;9.192;2022-10-16T07:13:36;13.60;99.90
11540;DHT22;5826;54.756;9.192;2022-10-16T07:16:13;13.60;99.90
11540;DHT22;5826;54.756;9.192;2022-10-16T07:18:40;13.70;99.90
11540;DHT22;5826;54.756;9.192;2022-10-16T07:21:15;13.70;99.90
11540;DHT22;5826;54.756;9.192;2022-10-16T07:23:41;13.80;99.90
11540;DHT22;5826;54.756;9.192;2022-10-16T07:26:09;13.80;99.90
11540;DHT22;5826;54.756;9.192;2022-10-16T07:28:35;13.80;99.90
11540;DHT22;5826;54.756;9.192;2022-10-16T07:31:06;13.80;99.90
11540;DHT22;5826;54.756;9.192;2022-10-16T07:33:33;13.80;99.90
11540;DHT22;5826;54.756;9.192;2022-10-16T07:35:59;13.70;99.90
11540;DHT22;5826;54.756;9.192;2022-10-16T07:38:25;13.70;99.90
11540;DHT22;5826;54.756;9.192;2022-10-16T07:40:58;13.70;99.90
11540;DHT22;5826;54.756;9.192;2022-10-16T07:43:24;13.70;99.90
11540;DHT22;5826;54.756;9.192;2022-10-16T07:45:50;13.70;99.90
11540;DHT22;5826;54.756;9.192;2022-10-16T07:48:17;13.80;99.90
11540;DHT22;5826;54.756;9.192;2022-10-16T07:50:43;13.80;99.90
11540;DHT22;5826;54.756;9.192;2022-10-16T07:53:09;13.90;99.90
11540;DHT22;5826;54.756;9.192;2022-10-16T07:55:35;14.00;99.90
11540;DHT22;5826;54.756;9.192;2022-10-16T07:58:01;14.00;99.90
11540;DHT22;5826;54.756;9.192;2022-10-16T08:00:26;14.10;99.90
11540;DHT22;5826;54.756;9.192;2022-10-16T08:02:52;14.10;99.90
11540;DHT22;5826;54.756;9.192;2022-10-16T08:05:17;14.10;99.90
11540;DHT22;5826;54.756;9.192;2022-10-16T08:07:47;14.10;99.90
11540;DHT22;5826;54.756;9.192;2022-10-16T08:10:17;14.10;99.90
11540;DHT22;5826;54.756;9.192;2022-10-16T08:12:43;14.10;99.90
11540;DHT22;5826;54.756;9.192;2022-10-16T08:15:10;14.10;99.90
11540;DHT22;5826;54.756;9.192;2022-10-16T08:17:35;14.20;99.90
11540;DHT22;5826;54.756;9.192;2022-10-16T08:20:01;14.20;99.90
11540;DHT22;5826;54.756;9.192;2022-10-16T08:22:27;14.30;99.90
11540;DHT22;5826;54.756;9.192;2022-10-16T08:24:52;14.30;99.90
11540;DHT22;5826;54.756;9.192;2022-10-16T08:27:18;14.40;99.90
11540;DHT22;5826;54.756;9.192;2022-10-16T08:29:43;14.40;99.90
11540;DHT22;5826;54.756;9.192;2022-10-16T08:32:09;14.40;99.90
11540;DHT22;5826;54.756;9.192;2022-10-16T08:34:34;14.40;99.90
11540;DHT22;5826;54.756;9.192;2022-10-16T08:37:00;14.50;99.90
11540;DHT22;5826;54.756;9.192;2022-10-16T08:39:25;14.50;99.90
11540;DHT22;5826;54.756;9.192;2022-10-16T08:42:18;14.50;99.90
11540;DHT22;5826;54.756;9.192;2022-10-16T08:50:25;14.70;99.90
11540;DHT22;5826;54.756;9.192;2022-10-16T08:52:52;14.80;99.90
11540;DHT22;5826;54.756;9.192;2022-10-16T08:55:34;14.80;99.90
11540;DHT22;5826;54.756;9.192;2022-10-16T08:58:11;14.80;99.90
11540;DHT22;5826;54.756;9.192;2022-10-16T09:00:38;14.80;99.90
11540;DHT22;5826;54.756;9.192;2022-10-16T09:03:16;14.90;99.90
11540;DHT22;5826;54.756;9.192;2022-10-16T09:06:26;14.90;99.90
11540;DHT22;5826;54.756;9.192;2022-10-16T09:08:58;15.00;99.90
11540;DHT22;5826;54.756;9.192;2022-10-16T09:22:49;15.20;99.90
11540;DHT22;5826;54.756;9.192;2022-10-16T09:25:18;15.30;99.90
11540;DHT22;5826;54.756;9.192;2022-10-16T09:27:48;15.30;99.90
11540;DHT22;5826;54.756;9.192;2022-10-16T09:30:16;15.30;99.90
11540;DHT22;5826;54.756;9.192;2022-10-16T09:32:43;15.40;99.90
11540;DHT22;5826;54.756;9.192;2022-10-16T09:35:17;15.50;99.90
11540;DHT22;5826;54.756;9.192;2022-10-16T09:37:46;15.50;99.90
11540;DHT22;5826;54.756;9.192;2022-10-16T09:40:23;15.50;99.90
11540;DHT22;5826;54.756;9.192;2022-10-16T09:42:48;15.50;99.90
11540;DHT22;5826;54.756;9.192;2022-10-16T09:45:22;15.60;99.90
11540;DHT22;5826;54.756;9.192;2022-10-16T09:47:48;15.70;99.90
11540;DHT22;5826;54.756;9.192;2022-10-16T09:50:25;15.70;99.90
11540;DHT22;5826;54.756;9.192;2022-10-16T09:53:11;15.60;99.90
11540;DHT22;5826;54.756;9.192;2022-10-16T09:55:47;15.60;99.90
11540;DHT22;5826;54.756;9.192;2022-10-16T09:58:13;15.60;99.90
11540;DHT22;5826;54.756;9.192;2022-10-16T10:00:41;15.60;99.90
11540;DHT22;5826;54.756;9.192;2022-10-16T10:03:10;15.60;99.90
11540;DHT22;5826;54.756;9.192;2022-10-16T10:05:39;15.70;99.90
11540;DHT22;5826;54.756;9.192;2022-10-16T10:08:05;15.80;99.90
11540;DHT22;5826;54.756;9.192;2022-10-16T10:10:33;15.80;99.90
11540;DHT22;5826;54.756;9.192;2022-10-16T10:12:59;15.80;99.90
11540;DHT22;5826;54.756;9.192;2022-10-16T10:15:26;15.90;99.90
11540;DHT22;5826;54.756;9.192;2022-10-16T10:17:54;16.00;99.90
11540;DHT22;5826;54.756;9.192;2022-10-16T10:20:32;16.10;99.90
11540;DHT22;5826;54.756;9.192;2022-10-16T10:23:00;16.10;99.90
11540;DHT22;5826;54.756;9.192;2022-10-16T10:25:41;16.10;99.90
11540;DHT22;5826;54.756;9.192;2022-10-16T10:28:42;16.20;99.90
11540;DHT22;5826;54.756;9.192;2022-10-16T10:31:25;16.20;99.90
11540;DHT22;5826;54.756;9.192;2022-10-16T10:36:49;15.80;99.90
11540;DHT22;5826;54.756;9.192;2022-10-16T10:39:40;15.70;99.90
11540;DHT22;5826;54.756;9.192;2022-10-16T10:42:39;15.70;99.90
11540;DHT22;5826;54.756;9.192;2022-10-16T10:50:34;16.00;99.90
11540;DHT22;5826;54.756;9.192;2022-10-16T10:53:21;16.10;99.90
11540;DHT22;5826;54.756;9.192;2022-10-16T10:55:52;16.20;99.90
11540;DHT22;5826;54.756;9.192;2022-10-16T11:01:15;16.40;99.90
11540;DHT22;5826;54.756;9.192;2022-10-16T11:04:15;16.50;99.90
11540;DHT22;5826;54.756;9.192;2022-10-16T11:06:51;16.60;99.90
11540;DHT22;5826;54.756;9.192;2022-10-16T11:12:25;16.80;99.90
11540;DHT22;5826;54.756;9.192;2022-10-16T11:15:29;16.70;99.90
11540;DHT22;5826;54.756;9.192;2022-10-16T11:18:04;16.50;99.90
11540;DHT22;5826;54.756;9.192;2022-10-16T11:20:35;16.40;99.90
11540;DHT22;5826;54.756;9.192;2022-10-16T11:23:14;16.40;99.90
11540;DHT22;5826;54.756;9.192;2022-10-16T11:25:41;16.30;99.90
11540;DHT22;5826;54.756;9.192;2022-10-16T11:31:04;16.20;99.90
11540;DHT22;5826;54.756;9.192;2022-10-16T11:33:52;16.10;99.90
11540;DHT22;5826;54.756;9.192;2022-10-16T11:36:28;16.00;99.90
11540;DHT22;5826;54.756;9.192;2022-10-16T11:39:00;16.00;99.90
11540;DHT22;5826;54.756;9.192;2022-10-16T11:41:51;15.90;99.90
11540;DHT22;5826;54.756;9.192;2022-10-16T11:46:52;15.90;99.90
11540;DHT22;5826;54.756;9.192;2022-10-16T11:49:23;16.00;99.90
11540;DHT22;5826;54.756;9.192;2022-10-16T11:52:13;16.10;99.90
11540;DHT22;5826;54.756;9.192;2022-10-16T11:57:22;16.30;99.90
11540;DHT22;5826;54.756;9.192;2022-10-16T11:59:52;16.20;99.90
11540;DHT22;5826;54.756;9.192;2022-10-16T12:02:43;16.00;99.90
11540;DHT22;5826;54.756;9.192;2022-10-16T12:05:17;16.10;99.90
11540;DHT22;5826;54.756;9.192;2022-10-16T12:10:33;16.00;99.90
11540;DHT22;5826;54.756;9.192;2022-10-16T12:15:47;16.60;99.90
11540;DHT22;5826;54.756;9.192;2022-10-16T12:18:22;16.80;99.90
11540;DHT22;5826;54.756;9.192;2022-10-16T12:20:55;17.00;99.90
11540;DHT22;5826;54.756;9.192;2022-10-16T12:23:24;17.00;99.90
11540;DHT22;5826;54.756;9.192;2022-10-16T12:25:55;16.90;99.90
11540;DHT22;5826;54.756;9.192;2022-10-16T12:28:25;16.80;99.90
11540;DHT22;5826;54.756;9.192;2022-10-16T12:31:01;16.70;99.90
11540;DHT22;5826;54.756;9.192;2022-10-16T12:33:30;16.80;99.90
11540;DHT22;5826;54.756;9.192;2022-10-16T12:35:57;16.90;99.90
11540;DHT22;5826;54.756;9.192;2022-10-16T12:41:06;17.80;99.90
11540;DHT22;5826;54.756;9.192;2022-10-16T12:43:45;18.30;99.90
11540;DHT22;5826;54.756;9.192;2022-10-16T12:48:38;19.30;99.90
11540;DHT22;5826;54.756;9.192;2022-10-16T12:53:38;19.50;99.90
11540;DHT22;5826;54.756;9.192;2022-10-16T12:56:24;19.30;99.90
11540;DHT22;5826;54.756;9.192;2022-10-16T13:02:27;18.50;99.90
11540;DHT22;5826;54.756;9.192;2022-10-16T13:05:21;19.60;99.90
11540;DHT22;5826;54.756;9.192;2022-10-16T13:11:05;23.60;99.90
11540;DHT22;5826;54.756;9.192;2022-10-16T13:13:59;23.80;99.90
11540;DHT22;5826;54.756;9.192;2022-10-16T13:22:13;20.10;99.90
11540;DHT22;5826;54.756;9.192;2022-10-16T13:27:56;18.60;99.90
11540;DHT22;5826;54.756;9.192;2022-10-16T13:30:25;18.70;99.90
11540;DHT22;5826;54.756;9.192;2022-10-16T13:33:01;18.60;99.90
11540;DHT22;5826;54.756;9.192;2022-10-16T13:35:29;18.50;99.90
11540;DHT22;5826;54.756;9.192;2022-10-16T13:38:17;18.70;99.90
11540;DHT22;5826;54.756;9.192;2022-10-16T13:40:56;19.60;99.90
11540;DHT22;5826;54.756;9.192;2022-10-16T13:43:49;20.90;99.90
11540;DHT22;5826;54.756;9.192;2022-10-16T13:46:17;22.10;99.90
11540;DHT22;5826;54.756;9.192;2022-10-16T13:48:43;22.90;99.90
11540;DHT22;5826;54.756;9.192;2022-10-16T13:51:15;23.80;99.90
11540;DHT22;5826;54.756;9.192;2022-10-16T13:53:41;24.80;99.90
11540;DHT22;5826;54.756;9.192;2022-10-16T13:56:11;26.00;99.90
11540;DHT22;5826;54.756;9.192;2022-10-16T13:58:37;25.60;99.90
11540;DHT22;5826;54.756;9.192;2022-10-16T14:01:05;24.50;99.90
11540;DHT22;5826;54.756;9.192;2022-10-16T14:03:32;23.80;99.90
11540;DHT22;5826;54.756;9.192;2022-10-16T14:06:04;25.60;99.90
11540;DHT22;5826;54.756;9.192;2022-10-16T14:08:31;26.60;99.90
11540;DHT22;5826;54.756;9.192;2022-10-16T14:10:59;27.90;99.90
11540;DHT22;5826;54.756;9.192;2022-10-16T14:13:31;29.30;99.90
11540;DHT22;5826;54.756;9.192;2022-10-16T14:16:02;30.70;99.10
11540;DHT22;5826;54.756;9.192;2022-10-16T14:18:29;32.10;97.00
11540;DHT22;5826;54.756;9.192;2022-10-16T14:20:55;33.30;95.80
11540;DHT22;5826;54.756;9.192;2022-10-16T14:23:34;34.00;94.30
11540;DHT22;5826;54.756;9.192;2022-10-16T14:28:36;34.70;90.30
11540;DHT22;5826;54.756;9.192;2022-10-16T14:31:21;34.60;91.80
11540;DHT22;5826;54.756;9.192;2022-10-16T14:33:48;34.60;82.60
11540;DHT22;5826;54.756;9.192;2022-10-16T14:36:15;34.80;91.50
11540;DHT22;5826;54.756;9.192;2022-10-16T14:39:02;34.90;90.60
11540;DHT22;5826;54.756;9.192;2022-10-16T14:41:30;34.70;90.40
11540;DHT22;5826;54.756;9.192;2022-10-16T14:44:00;33.70;90.80
11540;DHT22;5826;54.756;9.192;2022-10-16T14:46:38;31.40;90.70
11540;DHT22;5826;54.756;9.192;2022-10-16T14:49:19;28.60;94.30
11540;DHT22;5826;54.756;9.192;2022-10-16T14:51:46;27.50;94.30
11540;DHT22;5826;54.756;9.192;2022-10-16T14:54:16;26.10;96.00
11540;DHT22;5826;54.756;9.192;2022-10-16T14:56:49;25.70;94.70
11540;DHT22;5826;54.756;9.192;2022-10-16T14:59:39;26.00;95.30
11540;DHT22;5826;54.756;9.192;2022-10-16T15:02:33;26.20;96.60
11540;DHT22;5826;54.756;9.192;2022-10-16T15:05:11;26.90;90.70
11540;DHT22;5826;54.756;9.192;2022-10-16T15:07:37;26.80;95.50
11540;DHT22;5826;54.756;9.192;2022-10-16T15:10:03;25.30;94.90
11540;DHT22;5826;54.756;9.192;2022-10-16T15:12:28;23.90;96.70
11540;DHT22;5826;54.756;9.192;2022-10-16T15:14:54;22.50;97.60
11540;DHT22;5826;54.756;9.192;2022-10-16T15:17:19;21.20;98.90
11540;DHT22;5826;54.756;9.192;2022-10-16T15:19:45;20.30;99.90
11540;DHT22;5826;54.756;9.192;2022-10-16T15:22:11;19.50;99.90
11540;DHT22;5826;54.756;9.192;2022-10-16T15:24:37;18.70;99.90
11540;DHT22;5826;54.756;9.192;2022-10-16T15:27:03;18.80;99.90
11540;DHT22;5826;54.756;9.192;2022-10-16T15:29:28;20.10;99.90
11540;DHT22;5826;54.756;9.192;2022-10-16T15:31:54;21.60;99.30
11540;DHT22;5826;54.756;9.192;2022-10-16T15:34:19;22.80;98.20
11540;DHT22;5826;54.756;9.192;2022-10-16T15:36:45;23.90;97.40
11540;DHT22;5826;54.756;9.192;2022-10-16T15:39:19;24.10;96.10
11540;DHT22;5826;54.756;9.192;2022-10-16T15:41:46;23.20;96.80
11540;DHT22;5826;54.756;9.192;2022-10-16T15:44:19;22.00;97.80
11540;DHT22;5826;54.756;9.192;2022-10-16T15:46:46;20.80;98.90
11540;DHT22;5826;54.756;9.192;2022-10-16T15:49:12;19.60;99.20
11540;DHT22;5826;54.756;9.192;2022-10-16T15:51:39;18.90;99.90
11540;DHT22;5826;54.756;9.192;2022-10-16T15:54:05;18.30;99.90
11540;DHT22;5826;54.756;9.192;2022-10-16T15:56:32;17.80;99.90
11540;DHT22;5826;54.756;9.192;2022-10-16T15:58:59;17.40;99.90
11540;DHT22;5826;54.756;9.192;2022-10-16T16:01:25;17.10;99.90
11540;DHT22;5826;54.756;9.192;2022-10-16T16:03:54;16.80;99.90
11540;DHT22;5826;54.756;9.192;2022-10-16T16:06:20;16.50;99.90
11540;DHT22;5826;54.756;9.192;2022-10-16T16:08:46;16.30;99.90
11540;DHT22;5826;54.756;9.192;2022-10-16T16:11:13;16.10;99.90
11540;DHT22;5826;54.756;9.192;2022-10-16T16:13:40;15.90;99.90
11540;DHT22;5826;54.756;9.192;2022-10-16T16:16:11;15.80;99.90
11540;DHT22;5826;54.756;9.192;2022-10-16T16:18:37;15.70;99.90
11540;DHT22;5826;54.756;9.192;2022-10-16T16:21:04;15.50;99.90
11540;DHT22;5826;54.756;9.192;2022-10-16T16:23:30;15.40;99.90
11540;DHT22;5826;54.756;9.192;2022-10-16T16:28:46;15.30;99.90
11540;DHT22;5826;54.756;9.192;2022-10-16T16:31:12;15.10;99.90
11540;DHT22;5826;54.756;9.192;2022-10-16T16:33:38;15.10;99.90
11540;DHT22;5826;54.756;9.192;2022-10-16T16:36:05;15.00;99.90
11540;DHT22;5826;54.756;9.192;2022-10-16T16:38:32;14.90;99.90
11540;DHT22;5826;54.756;9.192;2022-10-16T16:40:58;14.90;99.90
11540;DHT22;5826;54.756;9.192;2022-10-16T16:43:25;14.90;99.90
11540;DHT22;5826;54.756;9.192;2022-10-16T16:45:51;14.80;99.90
11540;DHT22;5826;54.756;9.192;2022-10-16T16:48:16;14.70;99.90
11540;DHT22;5826;54.756;9.192;2022-10-16T16:50:42;14.70;99.90
11540;DHT22;5826;54.756;9.192;2022-10-16T16:53:07;14.70;99.90
11540;DHT22;5826;54.756;9.192;2022-10-16T16:55:33;14.60;99.90
11540;DHT22;5826;54.756;9.192;2022-10-16T16:57:59;14.60;99.90
11540;DHT22;5826;54.756;9.192;2022-10-16T17:00:25;14.50;99.90
11540;DHT22;5826;54.756;9.192;2022-10-16T17:02:51;14.50;99.90
11540;DHT22;5826;54.756;9.192;2022-10-16T17:05:17;14.50;99.90
11540;DHT22;5826;54.756;9.192;2022-10-16T17:07:43;14.40;99.90
11540;DHT22;5826;54.756;9.192;2022-10-16T17:10:09;14.40;99.90
11540;DHT22;5826;54.756;9.192;2022-10-16T17:12:35;14.40;99.90
11540;DHT22;5826;54.756;9.192;2022-10-16T17:15:00;14.40;99.90
11540;DHT22;5826;54.756;9.192;2022-10-16T17:17:26;14.30;99.90
11540;DHT22;5826;54.756;9.192;2022-10-16T17:19:52;14.30;99.90
11540;DHT22;5826;54.756;9.192;2022-10-16T17:22:18;14.30;99.90
11540;DHT22;5826;54.756;9.192;2022-10-16T17:24:44;14.20;99.90
11540;DHT22;5826;54.756;9.192;2022-10-16T17:27:14;14.20;99.90
11540;DHT22;5826;54.756;9.192;2022-10-16T17:29:40;14.20;99.90
11540;DHT22;5826;54.756;9.192;2022-10-16T17:32:06;14.10;99.90